sensor_id;sensor_type;location;lat;lon;timestamp;P1;durP1;ratioP1;P2;durP2;ratioP2
52586;SDS011;38480;52.724;6.436;2022-08-07T00:01:10;15.93;;;10.27;;
52586;SDS011;38480;52.724;6.436;2022-08-07T00:03:36;19.07;;;9.93;;
52586;SDS011;38480;52.724;6.436;2022-08-07T00:06:02;18.07;;;10.77;;
52586;SDS011;38480;52.724;6.436;2022-08-07T00:08:29;17.60;;;8.83;;
52586;SDS011;38480;52.724;6.436;2022-08-07T00:10:55;15.93;;;8.50;;
52586;SDS011;38480;52.724;6.436;2022-08-07T00:13:21;12.93;;;7.67;;
52586;SDS011;38480;52.724;6.436;2022-08-07T00:15:48;13.90;;;7.90;;
52586;SDS011;38480;52.724;6.436;2022-08-07T00:18:14;18.03;;;9.87;;
52586;SDS011;38480;52.724;6.436;2022-08-07T00:20:41;14.27;;;7.67;;
52586;SDS011;38480;52.724;6.436;2022-08-07T00:23:07;23.70;;;11.10;;
52586;SDS011;38480;52.724;6.436;2022-08-07T00:25:33;23.97;;;12.13;;
52586;SDS011;38480;52.724;6.436;2022-08-07T00:28:00;21.57;;;11.90;;
52586;SDS011;38480;52.724;6.436;2022-08-07T00:30:26;24.10;;;10.90;;
52586;SDS011;38480;52.724;6.436;2022-08-07T00:32:52;20.40;;;11.47;;
52586;SDS011;38480;52.724;6.436;2022-08-07T00:35:18;20.23;;;11.53;;
52586;SDS011;38480;52.724;6.436;2022-08-07T00:37:45;20.77;;;10.87;;
52586;SDS011;38480;52.724;6.436;2022-08-07T00:40:12;20.17;;;11.17;;
52586;SDS011;38480;52.724;6.436;2022-08-07T00:42:39;18.53;;;9.23;;
52586;SDS011;38480;52.724;6.436;2022-08-07T00:45:05;16.47;;;8.83;;
52586;SDS011;38480;52.724;6.436;2022-08-07T00:47:32;16.70;;;8.57;;
52586;SDS011;38480;52.724;6.436;2022-08-07T00:49:59;16.17;;;9.37;;
52586;SDS011;38480;52.724;6.436;2022-08-07T00:52:25;17.67;;;10.00;;
52586;SDS011;38480;52.724;6.436;2022-08-07T00:54:51;15.67;;;8.83;;
52586;SDS011;38480;52.724;6.436;2022-08-07T00:57:17;19.63;;;10.40;;
52586;SDS011;38480;52.724;6.436;2022-08-07T00:59:43;23.77;;;10.60;;
52586;SDS011;38480;52.724;6.436;2022-08-07T01:02:10;17.67;;;9.30;;
52586;SDS011;38480;52.724;6.436;2022-08-07T01:04:37;19.93;;;9.17;;
52586;SDS011;38480;52.724;6.436;2022-08-07T01:07:03;16.90;;;9.43;;
52586;SDS011;38480;52.724;6.436;2022-08-07T01:09:30;16.07;;;8.77;;
52586;SDS011;38480;52.724;6.436;2022-08-07T01:11:56;15.17;;;8.47;;
52586;SDS011;38480;52.724;6.436;2022-08-07T01:14:23;17.53;;;8.77;;
52586;SDS011;38480;52.724;6.436;2022-08-07T01:16:49;19.13;;;9.03;;
52586;SDS011;38480;52.724;6.436;2022-08-07T01:19:16;18.80;;;8.47;;
52586;SDS011;38480;52.724;6.436;2022-08-07T01:21:44;19.80;;;8.90;;
52586;SDS011;38480;52.724;6.436;2022-08-07T01:24:10;16.70;;;9.23;;
52586;SDS011;38480;52.724;6.436;2022-08-07T01:26:36;23.00;;;9.77;;
52586;SDS011;38480;52.724;6.436;2022-08-07T01:29:03;19.90;;;9.60;;
52586;SDS011;38480;52.724;6.436;2022-08-07T01:31:29;23.57;;;9.93;;
52586;SDS011;38480;52.724;6.436;2022-08-07T01:33:59;20.63;;;9.23;;
52586;SDS011;38480;52.724;6.436;2022-08-07T01:36:26;20.60;;;10.43;;
52586;SDS011;38480;52.724;6.436;2022-08-07T01:38:53;21.70;;;8.13;;
52586;SDS011;38480;52.724;6.436;2022-08-07T01:41:19;17.27;;;8.63;;
52586;SDS011;38480;52.724;6.436;2022-08-07T01:43:46;20.17;;;8.83;;
52586;SDS011;38480;52.724;6.436;2022-08-07T01:46:13;17.87;;;8.97;;
52586;SDS011;38480;52.724;6.436;2022-08-07T01:48:39;15.93;;;9.13;;
52586;SDS011;38480;52.724;6.436;2022-08-07T01:51:07;13.80;;;8.43;;
52586;SDS011;38480;52.724;6.436;2022-08-07T01:53:34;19.27;;;10.30;;
52586;SDS011;38480;52.724;6.436;2022-08-07T01:56:02;21.83;;;11.33;;
52586;SDS011;38480;52.724;6.436;2022-08-07T02:01:13;25.23;;;11.53;;
52586;SDS011;38480;52.724;6.436;2022-08-07T02:03:41;22.93;;;10.80;;
52586;SDS011;38480;52.724;6.436;2022-08-07T02:06:09;24.03;;;11.97;;
52586;SDS011;38480;52.724;6.436;2022-08-07T02:08:37;22.30;;;9.80;;
52586;SDS011;38480;52.724;6.436;2022-08-07T02:11:06;20.03;;;9.63;;
52586;SDS011;38480;52.724;6.436;2022-08-07T02:13:32;19.90;;;10.27;;
52586;SDS011;38480;52.724;6.436;2022-08-07T02:15:59;21.57;;;12.03;;
52586;SDS011;38480;52.724;6.436;2022-08-07T02:18:27;21.30;;;11.27;;
52586;SDS011;38480;52.724;6.436;2022-08-07T02:20:54;26.10;;;12.80;;
52586;SDS011;38480;52.724;6.436;2022-08-07T02:23:21;18.83;;;9.87;;
52586;SDS011;38480;52.724;6.436;2022-08-07T02:25:48;21.20;;;10.57;;
52586;SDS011;38480;52.724;6.436;2022-08-07T02:28:14;16.57;;;9.30;;
52586;SDS011;38480;52.724;6.436;2022-08-07T02:30:41;16.57;;;10.00;;
52586;SDS011;38480;52.724;6.436;2022-08-07T02:33:08;19.60;;;10.47;;
52586;SDS011;38480;52.724;6.436;2022-08-07T02:35:35;19.63;;;10.20;;
52586;SDS011;38480;52.724;6.436;2022-08-07T02:38:02;19.33;;;9.13;;
52586;SDS011;38480;52.724;6.436;2022-08-07T02:40:29;18.50;;;8.93;;
52586;SDS011;38480;52.724;6.436;2022-08-07T02:42:56;24.13;;;12.23;;
52586;SDS011;38480;52.724;6.436;2022-08-07T02:45:23;15.57;;;8.07;;
52586;SDS011;38480;52.724;6.436;2022-08-07T02:47:50;18.93;;;9.23;;
52586;SDS011;38480;52.724;6.436;2022-08-07T02:50:17;19.20;;;10.03;;
52586;SDS011;38480;52.724;6.436;2022-08-07T02:52:53;26.43;;;11.63;;
52586;SDS011;38480;52.724;6.436;2022-08-07T02:55:26;26.90;;;12.70;;
52586;SDS011;38480;52.724;6.436;2022-08-07T02:57:57;25.50;;;11.63;;
52586;SDS011;38480;52.724;6.436;2022-08-07T03:00:24;24.57;;;11.73;;
52586;SDS011;38480;52.724;6.436;2022-08-07T03:02:51;21.67;;;10.57;;
52586;SDS011;38480;52.724;6.436;2022-08-07T03:05:17;21.93;;;10.53;;
52586;SDS011;38480;52.724;6.436;2022-08-07T03:07:44;20.70;;;10.40;;
52586;SDS011;38480;52.724;6.436;2022-08-07T03:10:11;23.00;;;11.07;;
52586;SDS011;38480;52.724;6.436;2022-08-07T03:12:38;21.73;;;11.83;;
52586;SDS011;38480;52.724;6.436;2022-08-07T03:15:05;18.73;;;11.43;;
52586;SDS011;38480;52.724;6.436;2022-08-07T03:17:31;24.57;;;11.67;;
52586;SDS011;38480;52.724;6.436;2022-08-07T03:19:58;25.73;;;13.20;;
52586;SDS011;38480;52.724;6.436;2022-08-07T03:22:24;25.13;;;12.47;;
52586;SDS011;38480;52.724;6.436;2022-08-07T03:24:51;25.27;;;11.87;;
52586;SDS011;38480;52.724;6.436;2022-08-07T03:27:17;27.20;;;12.40;;
52586;SDS011;38480;52.724;6.436;2022-08-07T03:29:44;22.53;;;11.80;;
52586;SDS011;38480;52.724;6.436;2022-08-07T03:32:11;31.27;;;14.63;;
52586;SDS011;38480;52.724;6.436;2022-08-07T03:34:39;26.73;;;12.37;;
52586;SDS011;38480;52.724;6.436;2022-08-07T03:37:06;22.90;;;10.90;;
52586;SDS011;38480;52.724;6.436;2022-08-07T03:39:34;18.87;;;10.73;;
52586;SDS011;38480;52.724;6.436;2022-08-07T03:42:00;21.40;;;11.67;;
52586;SDS011;38480;52.724;6.436;2022-08-07T03:44:28;20.67;;;10.23;;
52586;SDS011;38480;52.724;6.436;2022-08-07T03:46:54;23.47;;;9.87;;
52586;SDS011;38480;52.724;6.436;2022-08-07T03:49:20;23.77;;;10.60;;
52586;SDS011;38480;52.724;6.436;2022-08-07T03:51:46;28.83;;;13.63;;
52586;SDS011;38480;52.724;6.436;2022-08-07T03:54:12;25.73;;;12.10;;
52586;SDS011;38480;52.724;6.436;2022-08-07T03:56:39;23.07;;;11.40;;
52586;SDS011;38480;52.724;6.436;2022-08-07T03:59:05;24.97;;;10.70;;
52586;SDS011;38480;52.724;6.436;2022-08-07T04:01:32;26.40;;;11.80;;
52586;SDS011;38480;52.724;6.436;2022-08-07T04:03:58;25.37;;;12.53;;
52586;SDS011;38480;52.724;6.436;2022-08-07T04:06:25;26.93;;;11.13;;
52586;SDS011;38480;52.724;6.436;2022-08-07T04:08:51;25.37;;;13.00;;
52586;SDS011;38480;52.724;6.436;2022-08-07T04:11:17;23.20;;;11.67;;
52586;SDS011;38480;52.724;6.436;2022-08-07T04:13:44;23.70;;;12.20;;
52586;SDS011;38480;52.724;6.436;2022-08-07T04:16:11;29.57;;;12.23;;
52586;SDS011;38480;52.724;6.436;2022-08-07T04:18:37;21.43;;;10.00;;
52586;SDS011;38480;52.724;6.436;2022-08-07T04:21:03;25.13;;;11.07;;
52586;SDS011;38480;52.724;6.436;2022-08-07T04:23:30;20.97;;;10.10;;
52586;SDS011;38480;52.724;6.436;2022-08-07T04:25:57;20.43;;;8.50;;
52586;SDS011;38480;52.724;6.436;2022-08-07T04:28:23;18.77;;;10.50;;
52586;SDS011;38480;52.724;6.436;2022-08-07T04:30:49;21.97;;;10.87;;
52586;SDS011;38480;52.724;6.436;2022-08-07T04:33:15;21.63;;;10.00;;
52586;SDS011;38480;52.724;6.436;2022-08-07T04:35:45;22.00;;;9.37;;
52586;SDS011;38480;52.724;6.436;2022-08-07T04:38:11;23.13;;;10.13;;
52586;SDS011;38480;52.724;6.436;2022-08-07T04:40:38;30.57;;;13.03;;
52586;SDS011;38480;52.724;6.436;2022-08-07T04:43:04;20.00;;;10.07;;
52586;SDS011;38480;52.724;6.436;2022-08-07T04:45:41;23.80;;;11.33;;
52586;SDS011;38480;52.724;6.436;2022-08-07T04:48:09;33.97;;;13.10;;
52586;SDS011;38480;52.724;6.436;2022-08-07T04:50:49;25.73;;;12.27;;
52586;SDS011;38480;52.724;6.436;2022-08-07T04:53:20;22.57;;;11.27;;
52586;SDS011;38480;52.724;6.436;2022-08-07T04:55:55;21.53;;;10.60;;
52586;SDS011;38480;52.724;6.436;2022-08-07T04:58:44;22.67;;;11.47;;
52586;SDS011;38480;52.724;6.436;2022-08-07T05:01:19;25.47;;;11.73;;
52586;SDS011;38480;52.724;6.436;2022-08-07T05:06:21;30.27;;;13.13;;
52586;SDS011;38480;52.724;6.436;2022-08-07T05:11:19;26.07;;;12.87;;
52586;SDS011;38480;52.724;6.436;2022-08-07T05:13:54;29.23;;;14.13;;
52586;SDS011;38480;52.724;6.436;2022-08-07T05:16:22;22.93;;;12.90;;
52586;SDS011;38480;52.724;6.436;2022-08-07T05:18:52;35.33;;;15.10;;
52586;SDS011;38480;52.724;6.436;2022-08-07T05:21:20;25.43;;;12.87;;
52586;SDS011;38480;52.724;6.436;2022-08-07T05:23:48;29.73;;;14.03;;
52586;SDS011;38480;52.724;6.436;2022-08-07T05:26:15;28.00;;;13.70;;
52586;SDS011;38480;52.724;6.436;2022-08-07T05:28:42;22.90;;;12.43;;
52586;SDS011;38480;52.724;6.436;2022-08-07T05:31:12;26.13;;;12.83;;
52586;SDS011;38480;52.724;6.436;2022-08-07T05:33:40;27.43;;;14.53;;
52586;SDS011;38480;52.724;6.436;2022-08-07T05:36:08;33.50;;;14.23;;
52586;SDS011;38480;52.724;6.436;2022-08-07T05:38:34;30.00;;;14.33;;
52586;SDS011;38480;52.724;6.436;2022-08-07T05:41:01;29.20;;;14.57;;
52586;SDS011;38480;52.724;6.436;2022-08-07T05:43:28;32.73;;;14.53;;
52586;SDS011;38480;52.724;6.436;2022-08-07T05:45:54;28.93;;;16.10;;
52586;SDS011;38480;52.724;6.436;2022-08-07T05:48:21;40.27;;;18.13;;
52586;SDS011;38480;52.724;6.436;2022-08-07T05:50:48;36.67;;;17.50;;
52586;SDS011;38480;52.724;6.436;2022-08-07T05:53:15;33.13;;;17.13;;
52586;SDS011;38480;52.724;6.436;2022-08-07T05:55:41;45.67;;;19.53;;
52586;SDS011;38480;52.724;6.436;2022-08-07T05:58:07;27.80;;;15.40;;
52586;SDS011;38480;52.724;6.436;2022-08-07T06:00:34;31.37;;;17.13;;
52586;SDS011;38480;52.724;6.436;2022-08-07T06:03:02;42.87;;;20.20;;
52586;SDS011;38480;52.724;6.436;2022-08-07T06:05:30;38.13;;;18.37;;
52586;SDS011;38480;52.724;6.436;2022-08-07T06:07:57;39.73;;;20.03;;
52586;SDS011;38480;52.724;6.436;2022-08-07T06:10:24;44.13;;;20.77;;
52586;SDS011;38480;52.724;6.436;2022-08-07T06:12:51;41.20;;;21.70;;
52586;SDS011;38480;52.724;6.436;2022-08-07T06:15:17;38.57;;;20.40;;
52586;SDS011;38480;52.724;6.436;2022-08-07T06:17:43;42.67;;;19.40;;
52586;SDS011;38480;52.724;6.436;2022-08-07T06:20:09;41.13;;;20.73;;
52586;SDS011;38480;52.724;6.436;2022-08-07T06:22:36;37.70;;;19.63;;
52586;SDS011;38480;52.724;6.436;2022-08-07T06:25:03;40.93;;;21.97;;
52586;SDS011;38480;52.724;6.436;2022-08-07T06:27:29;40.10;;;20.67;;
52586;SDS011;38480;52.724;6.436;2022-08-07T06:29:55;42.30;;;21.20;;
52586;SDS011;38480;52.724;6.436;2022-08-07T06:32:21;36.77;;;21.17;;
52586;SDS011;38480;52.724;6.436;2022-08-07T06:34:47;41.83;;;23.53;;
52586;SDS011;38480;52.724;6.436;2022-08-07T06:37:13;44.23;;;22.67;;
52586;SDS011;38480;52.724;6.436;2022-08-07T06:39:39;35.33;;;21.03;;
52586;SDS011;38480;52.724;6.436;2022-08-07T06:44:34;28.03;;;17.57;;
52586;SDS011;38480;52.724;6.436;2022-08-07T06:47:02;28.83;;;18.00;;
52586;SDS011;38480;52.724;6.436;2022-08-07T06:49:29;34.47;;;19.57;;
52586;SDS011;38480;52.724;6.436;2022-08-07T06:51:55;23.70;;;16.37;;
52586;SDS011;38480;52.724;6.436;2022-08-07T06:54:21;26.17;;;16.20;;
52586;SDS011;38480;52.724;6.436;2022-08-07T06:56:49;25.33;;;15.37;;
52586;SDS011;38480;52.724;6.436;2022-08-07T06:59:18;29.00;;;16.73;;
52586;SDS011;38480;52.724;6.436;2022-08-07T07:01:45;24.10;;;15.47;;
52586;SDS011;38480;52.724;6.436;2022-08-07T07:04:12;23.67;;;14.33;;
52586;SDS011;38480;52.724;6.436;2022-08-07T07:06:38;23.00;;;15.47;;
52586;SDS011;38480;52.724;6.436;2022-08-07T07:09:23;18.13;;;13.03;;
52586;SDS011;38480;52.724;6.436;2022-08-07T07:17:10;21.43;;;11.90;;
52586;SDS011;38480;52.724;6.436;2022-08-07T07:19:38;15.18;;;10.95;;
52586;SDS011;38480;52.724;6.436;2022-08-07T07:22:06;13.77;;;10.43;;
52586;SDS011;38480;52.724;6.436;2022-08-07T07:24:32;13.63;;;7.37;;
52586;SDS011;38480;52.724;6.436;2022-08-07T07:26:58;12.10;;;8.33;;
52586;SDS011;38480;52.724;6.436;2022-08-07T07:29:28;10.97;;;8.67;;
52586;SDS011;38480;52.724;6.436;2022-08-07T07:31:55;8.87;;;6.37;;
52586;SDS011;38480;52.724;6.436;2022-08-07T07:34:23;11.00;;;8.03;;
52586;SDS011;38480;52.724;6.436;2022-08-07T07:36:50;11.30;;;8.30;;
52586;SDS011;38480;52.724;6.436;2022-08-07T07:39:17;11.07;;;7.30;;
52586;SDS011;38480;52.724;6.436;2022-08-07T07:41:44;7.87;;;5.80;;
52586;SDS011;38480;52.724;6.436;2022-08-07T07:44:12;9.60;;;6.90;;
52586;SDS011;38480;52.724;6.436;2022-08-07T07:46:39;8.97;;;6.00;;
52586;SDS011;38480;52.724;6.436;2022-08-07T07:49:07;8.80;;;6.23;;
52586;SDS011;38480;52.724;6.436;2022-08-07T07:51:33;7.33;;;4.87;;
52586;SDS011;38480;52.724;6.436;2022-08-07T07:54:00;8.83;;;5.63;;
52586;SDS011;38480;52.724;6.436;2022-08-07T07:56:27;7.20;;;5.40;;
52586;SDS011;38480;52.724;6.436;2022-08-07T07:58:54;9.47;;;5.20;;
52586;SDS011;38480;52.724;6.436;2022-08-07T08:01:20;8.33;;;4.87;;
52586;SDS011;38480;52.724;6.436;2022-08-07T08:03:47;7.27;;;3.93;;
52586;SDS011;38480;52.724;6.436;2022-08-07T08:06:13;4.07;;;2.90;;
52586;SDS011;38480;52.724;6.436;2022-08-07T08:08:40;7.17;;;5.23;;
52586;SDS011;38480;52.724;6.436;2022-08-07T08:11:08;7.27;;;5.23;;
52586;SDS011;38480;52.724;6.436;2022-08-07T08:13:35;6.47;;;4.23;;
52586;SDS011;38480;52.724;6.436;2022-08-07T08:16:01;5.90;;;4.43;;
52586;SDS011;38480;52.724;6.436;2022-08-07T08:18:28;6.10;;;3.90;;
52586;SDS011;38480;52.724;6.436;2022-08-07T08:20:54;5.60;;;3.60;;
52586;SDS011;38480;52.724;6.436;2022-08-07T08:23:21;5.83;;;3.50;;
52586;SDS011;38480;52.724;6.436;2022-08-07T08:26:06;5.03;;;3.67;;
52586;SDS011;38480;52.724;6.436;2022-08-07T08:28:51;6.40;;;3.80;;
52586;SDS011;38480;52.724;6.436;2022-08-07T08:31:22;7.77;;;3.37;;
52586;SDS011;38480;52.724;6.436;2022-08-07T08:33:50;4.50;;;2.83;;
52586;SDS011;38480;52.724;6.436;2022-08-07T08:36:18;7.80;;;4.37;;
52586;SDS011;38480;52.724;6.436;2022-08-07T08:38:45;4.97;;;3.87;;
52586;SDS011;38480;52.724;6.436;2022-08-07T08:41:13;5.57;;;3.23;;
52586;SDS011;38480;52.724;6.436;2022-08-07T08:43:48;4.83;;;3.53;;
52586;SDS011;38480;52.724;6.436;2022-08-07T08:46:17;5.47;;;3.00;;
52586;SDS011;38480;52.724;6.436;2022-08-07T08:48:50;7.47;;;3.33;;
52586;SDS011;38480;52.724;6.436;2022-08-07T08:51:37;4.33;;;2.90;;
52586;SDS011;38480;52.724;6.436;2022-08-07T08:54:09;4.27;;;3.10;;
52586;SDS011;38480;52.724;6.436;2022-08-07T08:56:36;5.77;;;3.53;;
52586;SDS011;38480;52.724;6.436;2022-08-07T08:59:13;4.70;;;3.50;;
52586;SDS011;38480;52.724;6.436;2022-08-07T09:04:39;5.37;;;3.47;;
52586;SDS011;38480;52.724;6.436;2022-08-07T09:07:29;7.30;;;3.50;;
52586;SDS011;38480;52.724;6.436;2022-08-07T09:10:13;6.40;;;3.83;;
52586;SDS011;38480;52.724;6.436;2022-08-07T09:12:45;4.40;;;3.53;;
52586;SDS011;38480;52.724;6.436;2022-08-07T09:17:54;4.63;;;3.00;;
52586;SDS011;38480;52.724;6.436;2022-08-07T09:20:30;4.60;;;3.47;;
52586;SDS011;38480;52.724;6.436;2022-08-07T09:23:08;4.05;;;3.17;;
52586;SDS011;38480;52.724;6.436;2022-08-07T09:25:42;7.63;;;3.50;;
52586;SDS011;38480;52.724;6.436;2022-08-07T09:28:09;5.05;;;2.78;;
52586;SDS011;38480;52.724;6.436;2022-08-07T09:36:11;3.97;;;2.60;;
52586;SDS011;38480;52.724;6.436;2022-08-07T09:41:16;3.40;;;1.95;;
52586;SDS011;38480;52.724;6.436;2022-08-07T09:49:11;3.00;;;2.22;;
52586;SDS011;38480;52.724;6.436;2022-08-07T09:54:12;4.18;;;2.13;;
52586;SDS011;38480;52.724;6.436;2022-08-07T09:59:28;2.38;;;1.52;;
52586;SDS011;38480;52.724;6.436;2022-08-07T10:09:43;4.95;;;1.25;;
52586;SDS011;38480;52.724;6.436;2022-08-07T10:12:21;3.10;;;1.92;;
52586;SDS011;38480;52.724;6.436;2022-08-07T10:20:09;3.30;;;1.95;;
52586;SDS011;38480;52.724;6.436;2022-08-07T10:22:37;2.78;;;1.70;;
52586;SDS011;38480;52.724;6.436;2022-08-07T10:33:25;3.30;;;2.22;;
52586;SDS011;38480;52.724;6.436;2022-08-07T10:36:27;4.65;;;2.28;;
52586;SDS011;38480;52.724;6.436;2022-08-07T10:38:56;4.30;;;1.88;;
52586;SDS011;38480;52.724;6.436;2022-08-07T10:44:02;3.15;;;1.73;;
52586;SDS011;38480;52.724;6.436;2022-08-07T10:46:35;3.72;;;1.88;;
52586;SDS011;38480;52.724;6.436;2022-08-07T10:51:37;3.60;;;1.70;;
52586;SDS011;38480;52.724;6.436;2022-08-07T10:54:12;2.22;;;1.63;;
52586;SDS011;38480;52.724;6.436;2022-08-07T10:56:55;3.40;;;1.42;;
52586;SDS011;38480;52.724;6.436;2022-08-07T11:07:23;2.00;;;1.30;;
52586;SDS011;38480;52.724;6.436;2022-08-07T11:09:54;2.58;;;1.45;;
52586;SDS011;38480;52.724;6.436;2022-08-07T11:12:27;2.90;;;1.30;;
52586;SDS011;38480;52.724;6.436;2022-08-07T11:15:16;5.38;;;1.80;;
52586;SDS011;38480;52.724;6.436;2022-08-07T11:17:47;2.90;;;1.50;;
52586;SDS011;38480;52.724;6.436;2022-08-07T11:20:18;2.63;;;1.20;;
52586;SDS011;38480;52.724;6.436;2022-08-07T11:25:15;3.90;;;1.27;;
52586;SDS011;38480;52.724;6.436;2022-08-07T11:30:10;4.07;;;1.25;;
52586;SDS011;38480;52.724;6.436;2022-08-07T11:35:06;2.25;;;0.90;;
52586;SDS011;38480;52.724;6.436;2022-08-07T11:37:40;2.22;;;1.33;;
52586;SDS011;38480;52.724;6.436;2022-08-07T11:43:11;2.65;;;1.42;;
52586;SDS011;38480;52.724;6.436;2022-08-07T11:50:56;3.10;;;1.20;;
52586;SDS011;38480;52.724;6.436;2022-08-07T11:54:07;2.33;;;1.30;;
52586;SDS011;38480;52.724;6.436;2022-08-07T11:56:24;2.92;;;1.30;;
52586;SDS011;38480;52.724;6.436;2022-08-07T11:58:55;4.15;;;1.58;;
52586;SDS011;38480;52.724;6.436;2022-08-07T12:09:11;1.98;;;1.30;;
52586;SDS011;38480;52.724;6.436;2022-08-07T12:11:45;2.35;;;1.20;;
52586;SDS011;38480;52.724;6.436;2022-08-07T12:14:14;2.17;;;1.10;;
52586;SDS011;38480;52.724;6.436;2022-08-07T12:16:45;1.95;;;1.08;;
52586;SDS011;38480;52.724;6.436;2022-08-07T12:22:08;1.55;;;1.00;;
52586;SDS011;38480;52.724;6.436;2022-08-07T12:27:39;1.90;;;1.20;;
52586;SDS011;38480;52.724;6.436;2022-08-07T12:30:06;2.72;;;1.13;;
52586;SDS011;38480;52.724;6.436;2022-08-07T12:35:14;3.13;;;1.30;;
52586;SDS011;38480;52.724;6.436;2022-08-07T12:37:40;1.70;;;1.15;;
52586;SDS011;38480;52.724;6.436;2022-08-07T12:40:08;3.45;;;1.35;;
52586;SDS011;38480;52.724;6.436;2022-08-07T12:42:35;1.50;;;1.10;;
52586;SDS011;38480;52.724;6.436;2022-08-07T12:45:04;2.47;;;1.13;;
52586;SDS011;38480;52.724;6.436;2022-08-07T12:47:44;1.95;;;1.10;;
52586;SDS011;38480;52.724;6.436;2022-08-07T12:50:15;4.03;;;1.30;;
52586;SDS011;38480;52.724;6.436;2022-08-07T12:57:47;2.03;;;1.23;;
52586;SDS011;38480;52.724;6.436;2022-08-07T13:00:14;2.55;;;1.00;;
52586;SDS011;38480;52.724;6.436;2022-08-07T13:05:40;1.45;;;0.90;;
52586;SDS011;38480;52.724;6.436;2022-08-07T13:16:05;2.00;;;1.33;;
52586;SDS011;38480;52.724;6.436;2022-08-07T13:18:47;2.58;;;1.50;;
52586;SDS011;38480;52.724;6.436;2022-08-07T13:21:21;2.38;;;1.35;;
52586;SDS011;38480;52.724;6.436;2022-08-07T13:28:49;2.28;;;1.50;;
52586;SDS011;38480;52.724;6.436;2022-08-07T13:31:21;2.05;;;1.45;;
52586;SDS011;38480;52.724;6.436;2022-08-07T13:34:13;2.25;;;1.55;;
52586;SDS011;38480;52.724;6.436;2022-08-07T13:36:41;3.33;;;1.60;;
52586;SDS011;38480;52.724;6.436;2022-08-07T13:39:20;2.88;;;1.63;;
52586;SDS011;38480;52.724;6.436;2022-08-07T13:41:51;2.25;;;1.60;;
52586;SDS011;38480;52.724;6.436;2022-08-07T13:44:21;2.78;;;1.50;;
52586;SDS011;38480;52.724;6.436;2022-08-07T13:46:50;4.07;;;2.03;;
52586;SDS011;38480;52.724;6.436;2022-08-07T13:49:21;4.55;;;1.52;;
52586;SDS011;38480;52.724;6.436;2022-08-07T13:51:47;4.18;;;1.70;;
52586;SDS011;38480;52.724;6.436;2022-08-07T13:54:14;3.92;;;1.50;;
52586;SDS011;38480;52.724;6.436;2022-08-07T13:56:41;1.90;;;1.25;;
52586;SDS011;38480;52.724;6.436;2022-08-07T13:59:11;3.78;;;1.40;;
52586;SDS011;38480;52.724;6.436;2022-08-07T14:01:48;1.80;;;1.10;;
52586;SDS011;38480;52.724;6.436;2022-08-07T14:04:15;2.95;;;1.35;;
52586;SDS011;38480;52.724;6.436;2022-08-07T14:06:43;3.10;;;1.58;;
52586;SDS011;38480;52.724;6.436;2022-08-07T14:09:14;2.28;;;1.30;;
52586;SDS011;38480;52.724;6.436;2022-08-07T14:11:43;1.80;;;1.30;;
52586;SDS011;38480;52.724;6.436;2022-08-07T14:14:10;2.15;;;1.40;;
52586;SDS011;38480;52.724;6.436;2022-08-07T14:16:39;2.70;;;1.38;;
52586;SDS011;38480;52.724;6.436;2022-08-07T14:19:12;2.22;;;0.95;;
52586;SDS011;38480;52.724;6.436;2022-08-07T14:21:41;2.70;;;1.27;;
52586;SDS011;38480;52.724;6.436;2022-08-07T14:24:12;1.80;;;1.30;;
52586;SDS011;38480;52.724;6.436;2022-08-07T14:26:43;2.67;;;1.10;;
52586;SDS011;38480;52.724;6.436;2022-08-07T14:29:14;2.83;;;1.60;;
52586;SDS011;38480;52.724;6.436;2022-08-07T14:31:41;3.22;;;1.50;;
52586;SDS011;38480;52.724;6.436;2022-08-07T14:34:09;2.40;;;1.50;;
52586;SDS011;38480;52.724;6.436;2022-08-07T14:36:36;3.40;;;1.40;;
52586;SDS011;38480;52.724;6.436;2022-08-07T14:39:03;2.90;;;1.42;;
52586;SDS011;38480;52.724;6.436;2022-08-07T14:41:30;4.15;;;1.60;;
52586;SDS011;38480;52.724;6.436;2022-08-07T14:43:57;3.70;;;1.60;;
52586;SDS011;38480;52.724;6.436;2022-08-07T14:46:26;2.65;;;1.40;;
52586;SDS011;38480;52.724;6.436;2022-08-07T14:48:53;2.40;;;1.50;;
52586;SDS011;38480;52.724;6.436;2022-08-07T14:51:21;2.83;;;1.50;;
52586;SDS011;38480;52.724;6.436;2022-08-07T14:53:52;2.95;;;1.60;;
52586;SDS011;38480;52.724;6.436;2022-08-07T14:56:19;3.78;;;1.48;;
52586;SDS011;38480;52.724;6.436;2022-08-07T14:58:56;2.80;;;1.60;;
52586;SDS011;38480;52.724;6.436;2022-08-07T15:01:24;4.53;;;1.50;;
52586;SDS011;38480;52.724;6.436;2022-08-07T15:03:52;2.70;;;1.52;;
52586;SDS011;38480;52.724;6.436;2022-08-07T15:06:22;4.28;;;1.67;;
52586;SDS011;38480;52.724;6.436;2022-08-07T15:08:49;2.58;;;1.77;;
52586;SDS011;38480;52.724;6.436;2022-08-07T15:11:20;2.95;;;1.70;;
52586;SDS011;38480;52.724;6.436;2022-08-07T15:13:50;3.13;;;1.63;;
52586;SDS011;38480;52.724;6.436;2022-08-07T15:16:17;3.83;;;1.65;;
52586;SDS011;38480;52.724;6.436;2022-08-07T15:18:46;3.25;;;1.70;;
52586;SDS011;38480;52.724;6.436;2022-08-07T15:21:18;2.78;;;1.60;;
52586;SDS011;38480;52.724;6.436;2022-08-07T15:23:45;4.40;;;2.28;;
52586;SDS011;38480;52.724;6.436;2022-08-07T15:26:13;3.35;;;1.70;;
52586;SDS011;38480;52.724;6.436;2022-08-07T15:28:39;4.65;;;1.60;;
52586;SDS011;38480;52.724;6.436;2022-08-07T15:31:08;3.55;;;1.75;;
52586;SDS011;38480;52.724;6.436;2022-08-07T15:33:37;3.90;;;1.77;;
52586;SDS011;38480;52.724;6.436;2022-08-07T15:36:04;2.83;;;1.95;;
52586;SDS011;38480;52.724;6.436;2022-08-07T15:38:32;2.65;;;1.50;;
52586;SDS011;38480;52.724;6.436;2022-08-07T15:41:03;6.13;;;1.33;;
52586;SDS011;38480;52.724;6.436;2022-08-07T15:43:31;5.50;;;1.60;;
52586;SDS011;38480;52.724;6.436;2022-08-07T15:46:13;2.97;;;1.40;;
52586;SDS011;38480;52.724;6.436;2022-08-07T15:48:39;3.05;;;1.35;;
52586;SDS011;38480;52.724;6.436;2022-08-07T15:51:07;5.78;;;2.05;;
52586;SDS011;38480;52.724;6.436;2022-08-07T15:53:41;2.58;;;1.45;;
52586;SDS011;38480;52.724;6.436;2022-08-07T15:56:08;2.60;;;1.55;;
52586;SDS011;38480;52.724;6.436;2022-08-07T16:04:02;2.13;;;1.25;;
52586;SDS011;38480;52.724;6.436;2022-08-07T16:08:57;3.70;;;1.10;;
52586;SDS011;38480;52.724;6.436;2022-08-07T16:11:31;2.90;;;1.33;;
52586;SDS011;38480;52.724;6.436;2022-08-07T16:16:36;2.20;;;1.50;;
52586;SDS011;38480;52.724;6.436;2022-08-07T16:19:09;4.28;;;1.10;;
52586;SDS011;38480;52.724;6.436;2022-08-07T16:22:01;2.70;;;1.33;;
52586;SDS011;38480;52.724;6.436;2022-08-07T16:27:33;1.83;;;1.00;;
52586;SDS011;38480;52.724;6.436;2022-08-07T16:32:33;2.17;;;1.10;;
52586;SDS011;38480;52.724;6.436;2022-08-07T16:35:18;2.88;;;1.48;;
52586;SDS011;38480;52.724;6.436;2022-08-07T16:51:26;2.28;;;1.17;;
52586;SDS011;38480;52.724;6.436;2022-08-07T17:01:59;1.92;;;1.00;;
52586;SDS011;38480;52.724;6.436;2022-08-07T17:04:35;3.63;;;1.00;;
52586;SDS011;38480;52.724;6.436;2022-08-07T17:07:17;3.78;;;1.00;;
52586;SDS011;38480;52.724;6.436;2022-08-07T17:09:51;5.55;;;1.27;;
52586;SDS011;38480;52.724;6.436;2022-08-07T17:14:48;2.70;;;1.08;;
52586;SDS011;38480;52.724;6.436;2022-08-07T17:22:32;2.58;;;1.00;;
52586;SDS011;38480;52.724;6.436;2022-08-07T17:27:32;4.45;;;1.30;;
52586;SDS011;38480;52.724;6.436;2022-08-07T17:32:37;2.47;;;1.13;;
52586;SDS011;38480;52.724;6.436;2022-08-07T17:35:05;2.28;;;1.40;;
52586;SDS011;38480;52.724;6.436;2022-08-07T17:37:42;4.32;;;1.48;;
52586;SDS011;38480;52.724;6.436;2022-08-07T17:40:16;1.95;;;1.00;;
52586;SDS011;38480;52.724;6.436;2022-08-07T17:42:45;2.88;;;1.50;;
52586;SDS011;38480;52.724;6.436;2022-08-07T17:45:19;2.35;;;1.25;;